KHST/HST METAR and TAF weather

Enter ICAO airport designator
Station Type Date Time Source
KHST METAR 2019/08/18 18:56 UTC NOAA

KHST 181856Z AUTO 07008KT 10SM SCT029 SCT036 33/26 A3006 RMK AO2 SLP183 T03250258


Station Type Date Time Source
KHST Decoded METAR 2019/08/18 18:56 UTC NOAA

Station name not available
Aug 18, 2019 - 02:56 PM EDT / 2019.08.18 1856 UTC
Wind: from the ENE (070 degrees) at 9 MPH (8 KT):0
Visibility: 10 mile(s):0
Sky conditions: partly cloudy
Temperature: 90.5 F (32.5 C)
Heat index: 105.3 F (40.7 C):1
Dew Point: 78.4 F (25.8 C)
Relative Humidity: 67%
Pressure (altimeter): 30.06 in. Hg (1017 hPa)
ob: KHST 181856Z AUTO 07008KT 10SM SCT029 SCT036 33/26 A3006 RMK AO2 SLP183 T03250258
cycle: 19

Station Type Date Time Source
KHST TAF 2019/08/18 16:11 UTC NOAA

TAF KHST 181600Z 1816/1922 10009KT 9999 SKC QNH3000INS
BECMG 1817/1818 16009KT 9999 VCTS SCT030CB QNH3000INS
TEMPO 1820/1822 VRB10G15KT 6000 -TSRA BKN020CB BKN050
BECMG 1822/1823 13006KT 9999 NSW FEW010 SCT030 QNH3002INS
BECMG 1910/1911 08006KT 9999 BKN030 QNH3000INS
BECMG 1915/1916 09006KT 8000 -SHRA BKN020 BKN040 QNH2999INS
TEMPO 1918/1922 VRB10G15KT 6000 -TSRA BKN020CB BKN030 TX34/1818Z TN25/1911Z

Example: see airport list